Time;durP1;ratioP1;P1;durP2;ratioP2;P2;SDS_P1;SDS_P2;PMS_P1;PMS_P2;Temp;Humidity;BMP_temperature;BMP_pressure;BME280_temperature;BME280_humidity;BME280_pressure;Samples;Min_cycle;Max_cycle;Signal;HPM_P1;HPM_P2
2021/07/03 00:01:33;;;;;;;13.20;11.70;;;18.00;1.00;;;;;;5047665;28;20918;-77
2021/07/03 00:04:00;;;;;;;13.47;12.17;;;17.90;1.00;;;;;;5043076;28;20553;-76
2021/07/03 00:06:27;;;;;;;14.20;12.70;;;17.90;1.00;;;;;;5051387;28;20470;-77
2021/07/03 00:08:53;;;;;;;13.43;12.17;;;17.90;1.00;;;;;;5042576;28;20471;-76
2021/07/03 00:11:20;;;;;;;16.30;12.67;;;17.90;1.00;;;;;;5051792;28;20470;-76
2021/07/03 00:13:48;;;;;;;13.97;12.47;;;17.80;1.00;;;;;;5052990;28;21034;-76
2021/07/03 00:16:15;;;;;;;13.10;11.90;;;17.80;1.00;;;;;;5052972;28;20550;-75
2021/07/03 00:18:41;;;;;;;13.40;12.07;;;17.80;1.00;;;;;;5050980;28;20450;-76
2021/07/03 00:21:08;;;;;;;15.20;13.70;;;17.80;1.00;;;;;;5045755;28;20533;-76
2021/07/03 00:23:35;;;;;;;15.40;13.80;;;17.80;1.00;;;;;;5053613;28;21240;-76
2021/07/03 00:26:02;;;;;;;13.90;12.50;;;17.80;1.00;;;;;;5044294;28;20455;-76
2021/07/03 00:28:29;;;;;;;14.20;12.83;;;17.70;1.00;;;;;;5064923;28;20553;-77
2021/07/03 00:30:57;;;;;;;14.67;13.17;;;17.70;1.00;;;;;;5040993;28;21316;-76
2021/07/03 00:33:24;;;;;;;15.90;14.30;;;17.70;1.00;;;;;;5048913;28;20467;-76
2021/07/03 00:35:50;;;;;;;14.63;13.17;;;17.60;1.00;;;;;;5050323;28;20462;-76
2021/07/03 00:38:17;;;;;;;16.20;14.10;;;17.60;1.00;;;;;;5040885;28;20529;-76
2021/07/03 00:40:44;;;;;;;16.50;13.47;;;17.60;1.00;;;;;;5043107;28;20470;-77
2021/07/03 00:43:11;;;;;;;14.47;12.97;;;17.60;1.00;;;;;;5046682;28;21392;-76
2021/07/03 00:45:37;;;;;;;14.10;12.83;;;17.50;1.00;;;;;;5048836;28;20441;-76
2021/07/03 00:48:06;;;;;;;14.83;13.27;;;17.50;1.00;;;;;;5047305;28;20441;-76
2021/07/03 00:50:33;;;;;;;15.53;14.03;;;17.60;1.00;;;;;;5050159;28;20477;-77
2021/07/03 00:53:00;;;;;;;20.20;14.60;;;17.50;1.00;;;;;;5041593;28;20478;-76
2021/07/03 00:55:27;;;;;;;16.37;14.83;;;17.50;1.00;;;;;;5046923;28;20450;-77
2021/07/03 00:57:54;;;;;;;15.67;14.07;;;17.60;1.00;;;;;;5044976;28;20449;-77
2021/07/03 01:00:22;;;;;;;15.17;13.80;;;17.60;1.00;;;;;;5045231;28;20448;-77
2021/07/03 01:02:50;;;;;;;15.67;13.63;;;17.60;1.00;;;;;;5045106;28;21328;-76
2021/07/03 01:05:18;;;;;;;18.20;16.30;;;17.70;1.00;;;;;;5039708;28;20463;-77
2021/07/03 01:07:45;;;;;;;16.00;14.40;;;17.60;1.00;;;;;;5044061;28;20471;-77
2021/07/03 01:10:19;;;;;;;16.27;14.40;;;17.60;1.00;;;;;;5039434;28;21573;-77
2021/07/03 01:12:46;;;;;;;16.27;14.67;;;17.60;1.00;;;;;;5042796;28;21128;-77
2021/07/03 01:15:13;;;;;;;16.80;14.27;;;17.70;1.00;;;;;;5039370;28;20435;-77
2021/07/03 01:17:40;;;;;;;14.87;13.47;;;17.70;1.00;;;;;;5045034;28;20460;-77
2021/07/03 01:20:08;;;;;;;19.20;15.40;;;17.70;1.00;;;;;;5042926;28;20490;-78
2021/07/03 01:22:37;;;;;;;18.40;16.57;;;17.70;1.00;;;;;;5045610;28;20583;-77
2021/07/03 01:25:04;;;;;;;15.03;13.60;;;17.70;1.00;;;;;;5046800;28;20456;-77
2021/07/03 01:27:32;;;;;;;16.43;14.83;;;17.70;1.00;;;;;;5045712;28;20447;-77
2021/07/03 01:29:59;;;;;;;16.27;14.67;;;17.70;1.00;;;;;;5040740;28;20435;-77
2021/07/03 01:32:26;;;;;;;17.50;15.70;;;17.70;1.00;;;;;;5041676;28;20457;-77
2021/07/03 01:34:52;;;;;;;19.17;17.17;;;17.60;1.00;;;;;;5051749;28;20958;-77
2021/07/03 01:37:19;;;;;;;16.30;14.93;;;17.60;1.00;;;;;;5044897;28;20451;-78
2021/07/03 01:39:49;;;;;;;17.57;15.97;;;17.60;1.00;;;;;;5049080;28;21952;-76
2021/07/03 01:42:15;;;;;;;18.67;16.73;;;17.60;1.00;;;;;;5039084;28;20460;-76
2021/07/03 01:44:44;;;;;;;18.13;16.33;;;17.50;1.00;;;;;;5048050;28;21122;-75
2021/07/03 01:47:10;;;;;;;17.70;15.90;;;17.50;1.00;;;;;;5042799;28;20996;-76
2021/07/03 01:49:39;;;;;;;16.83;15.10;;;17.50;1.00;;;;;;5044141;28;20508;-76
2021/07/03 01:52:06;;;;;;;17.87;16.17;;;17.50;1.00;;;;;;5038757;28;21345;-76
2021/07/03 01:54:34;;;;;;;22.73;20.60;;;17.40;1.00;;;;;;5041726;28;21249;-76
2021/07/03 01:57:02;;;;;;;17.27;15.67;;;17.40;1.00;;;;;;5049253;28;20482;-77
2021/07/03 01:59:31;;;;;;;18.20;16.20;;;17.40;1.00;;;;;;5043316;28;20876;-77
2021/07/03 02:02:00;;;;;;;17.87;16.07;;;17.30;1.00;;;;;;5047509;28;20442;-77
2021/07/03 02:04:27;;;;;;;18.53;16.63;;;17.30;1.00;;;;;;5041079;28;20466;-77
2021/07/03 02:06:54;;;;;;;19.60;17.50;;;17.30;1.00;;;;;;5045111;28;20430;-77
2021/07/03 02:09:21;;;;;;;18.57;16.77;;;17.30;1.00;;;;;;5039685;28;20458;-76
2021/07/03 02:11:48;;;;;;;19.17;16.73;;;17.20;1.00;;;;;;5053755;28;20446;-77
2021/07/03 02:14:17;;;;;;;18.50;16.30;;;17.10;1.00;;;;;;5041716;28;20465;-77
2021/07/03 02:16:44;;;;;;;19.47;17.43;;;17.10;1.00;;;;;;5048969;28;20442;-77
2021/07/03 02:19:11;;;;;;;18.47;16.50;;;17.10;1.00;;;;;;5042422;28;20445;-76
2021/07/03 02:21:38;;;;;;;18.10;16.40;;;17.10;1.00;;;;;;5051411;28;20446;-76
2021/07/03 02:24:05;;;;;;;19.10;17.20;;;17.00;1.00;;;;;;5048363;28;20453;-76
2021/07/03 02:26:32;;;;;;;20.17;18.10;;;17.00;1.00;;;;;;5073144;22;22074;-76
2021/07/03 02:28:58;;;;;;;20.90;18.80;;;17.00;1.00;;;;;;5082609;28;20457;-76
2021/07/03 02:31:26;;;;;;;18.77;16.90;;;17.00;1.00;;;;;;5089574;28;20482;-76
2021/07/03 02:33:53;;;;;;;21.40;19.37;;;17.00;1.00;;;;;;5086350;28;20450;-76
2021/07/03 02:36:20;;;;;;;20.43;18.43;;;16.90;1.00;;;;;;5077782;28;20445;-76
2021/07/03 02:38:47;;;;;;;20.20;18.27;;;16.90;1.00;;;;;;5085669;28;20481;-76
2021/07/03 02:41:14;;;;;;;19.60;17.60;;;16.90;1.00;;;;;;5078859;28;20482;-76
2021/07/03 02:43:40;;;;;;;19.40;17.40;;;16.90;1.00;;;;;;5078610;28;20901;-77
2021/07/03 02:46:07;;;;;;;19.93;17.97;;;16.80;1.00;;;;;;5080817;28;20441;-77
2021/07/03 02:48:35;;;;;;;22.07;19.00;;;16.80;1.00;;;;;;5081965;28;20460;-77
2021/07/03 02:51:02;;;;;;;21.93;19.43;;;16.80;1.00;;;;;;5082256;28;21594;-77
2021/07/03 02:53:28;;;;;;;20.50;18.50;;;16.80;1.00;;;;;;5082463;28;21175;-77
2021/07/03 02:55:55;;;;;;;20.77;18.67;;;16.70;1.00;;;;;;5082460;28;20440;-76
2021/07/03 02:58:22;;;;;;;20.23;18.10;;;16.70;1.00;;;;;;5079184;28;20465;-77
2021/07/03 03:00:49;;;;;;;26.23;19.73;;;16.70;1.00;;;;;;5084037;28;20453;-77
2021/07/03 03:03:15;;;;;;;21.47;19.30;;;16.70;1.00;;;;;;5080865;28;21423;-77
2021/07/03 03:05:43;;;;;;;20.77;18.67;;;16.70;1.00;;;;;;5078579;28;20459;-76
2021/07/03 03:08:11;;;;;;;20.10;18.07;;;16.70;1.00;;;;;;5077502;28;20456;-77
2021/07/03 03:10:38;;;;;;;20.80;18.87;;;16.70;1.00;;;;;;5083262;28;20444;-76
2021/07/03 03:13:04;;;;;;;21.27;19.10;;;16.70;1.00;;;;;;5082089;28;20452;-77
2021/07/03 03:15:31;;;;;;;20.27;18.27;;;16.70;1.00;;;;;;5082324;28;21479;-77
2021/07/03 03:17:58;;;;;;;22.40;19.17;;;16.70;1.00;;;;;;5086147;28;20457;-76
2021/07/03 03:20:24;;;;;;;21.77;18.70;;;16.60;1.00;;;;;;5083904;28;20453;-77
2021/07/03 03:22:52;;;;;;;22.10;19.80;;;16.60;1.00;;;;;;5084713;28;20453;-76
2021/07/03 03:25:19;;;;;;;19.90;17.90;;;16.60;1.00;;;;;;5077997;28;21415;-77
2021/07/03 03:27:46;;;;;;;20.07;18.00;;;16.60;1.00;;;;;;5077773;28;20465;-76
2021/07/03 03:30:14;;;;;;;22.40;20.00;;;16.60;1.00;;;;;;5078960;28;20465;-77
2021/07/03 03:32:40;;;;;;;20.40;18.30;;;16.60;1.00;;;;;;5084065;28;20531;-77
2021/07/03 03:35:08;;;;;;;21.70;19.47;;;16.60;1.00;;;;;;5085109;28;20438;-77
2021/07/03 03:37:35;;;;;;;21.03;18.53;;;16.60;1.00;;;;;;5084651;28;20539;-77
2021/07/03 03:40:04;;;;;;;26.33;23.53;;;16.60;1.00;;;;;;5084901;28;20546;-76
2021/07/03 03:42:31;;;;;;;22.60;20.30;;;16.60;1.00;;;;;;5079905;28;20505;-77
2021/07/03 03:44:58;;;;;;;22.00;19.83;;;16.60;1.00;;;;;;5088245;28;20528;-77
2021/07/03 03:47:24;;;;;;;21.43;19.23;;;16.60;1.00;;;;;;5086094;28;20463;-77
2021/07/03 03:49:51;;;;;;;23.00;19.83;;;16.60;1.00;;;;;;5087645;28;21123;-75
2021/07/03 03:52:17;;;;;;;23.50;19.23;;;16.60;1.00;;;;;;5104112;28;20434;-76
2021/07/03 03:54:44;;;;;;;23.97;20.43;;;16.60;1.00;;;;;;5112606;28;20400;-75
2021/07/03 03:57:29;;;;;;;21.47;19.27;;;16.60;1.00;;;;;;5113655;28;20426;-76
2021/07/03 03:59:56;;;;;;;23.53;19.70;;;16.70;1.00;;;;;;5092202;28;20460;-76
2021/07/03 04:02:22;;;;;;;23.43;20.80;;;16.70;1.00;;;;;;5088763;28;20476;-76
2021/07/03 04:04:50;;;;;;;21.90;19.60;;;16.70;1.00;;;;;;5082888;28;20449;-76
2021/07/03 04:07:17;;;;;;;22.20;19.90;;;16.70;1.00;;;;;;5088053;28;20537;-76
2021/07/03 04:09:43;;;;;;;22.17;20.03;;;16.70;1.00;;;;;;5081040;28;20479;-76
2021/07/03 04:12:11;;;;;;;21.17;19.10;;;16.80;1.00;;;;;;5082253;28;20981;-76
2021/07/03 04:14:38;;;;;;;23.03;20.70;;;16.80;1.00;;;;;;5080378;28;20459;-75
2021/07/03 04:17:05;;;;;;;23.17;19.60;;;16.80;1.00;;;;;;5084073;28;20464;-76
2021/07/03 04:19:32;;;;;;;22.40;20.03;;;16.80;1.00;;;;;;5084516;28;20484;-76
2021/07/03 04:21:59;;;;;;;22.07;19.83;;;16.80;1.00;;;;;;5083982;28;20465;-76
2021/07/03 04:24:26;;;;;;;21.80;19.50;;;16.80;1.00;;;;;;5084621;28;21604;-76
2021/07/03 04:26:53;;;;;;;22.23;20.00;;;16.90;1.00;;;;;;5084815;28;20439;-76
2021/07/03 04:29:21;;;;;;;23.10;19.60;;;16.90;1.00;;;;;;5086794;28;21529;-76
2021/07/03 04:31:47;;;;;;;24.23;21.83;;;16.90;1.00;;;;;;5086738;28;20453;-76
2021/07/03 04:34:15;;;;;;;24.00;20.00;;;17.00;1.00;;;;;;5096351;28;20441;-75
2021/07/03 04:36:41;;;;;;;21.87;19.60;;;17.00;1.00;;;;;;5087620;28;20439;-75
2021/07/03 04:39:08;;;;;;;24.70;22.10;;;17.00;1.00;;;;;;5090872;28;21184;-75
2021/07/03 04:41:35;;;;;;;22.00;19.80;;;17.00;1.00;;;;;;5090004;28;20427;-75
2021/07/03 04:44:01;;;;;;;23.13;20.67;;;17.10;1.00;;;;;;5090011;28;20448;-76
2021/07/03 04:46:30;;;;;;;25.13;22.23;;;17.10;1.00;;;;;;5086576;28;20442;-76
2021/07/03 04:48:56;;;;;;;23.40;20.50;;;17.10;1.00;;;;;;5089858;28;20487;-75
2021/07/03 04:51:23;;;;;;;23.17;20.80;;;17.10;1.00;;;;;;5093499;28;20540;-76
2021/07/03 04:53:49;;;;;;;22.27;20.07;;;17.20;1.00;;;;;;5087707;28;20456;-75
2021/07/03 04:56:17;;;;;;;21.90;19.80;;;17.20;1.00;;;;;;5089056;28;20505;-75
2021/07/03 04:58:44;;;;;;;22.30;19.20;;;17.20;1.00;;;;;;5088425;28;22205;-75
2021/07/03 05:01:10;;;;;;;21.77;19.60;;;17.30;1.00;;;;;;5092040;28;20445;-75
2021/07/03 05:03:38;;;;;;;21.50;19.40;;;17.40;1.00;;;;;;5088205;28;20445;-75
2021/07/03 05:06:05;;;;;;;22.57;18.80;;;17.40;1.00;;;;;;5090734;28;20500;-76
2021/07/03 05:08:32;;;;;;;21.97;19.87;;;17.50;1.00;;;;;;5086795;28;20417;-75
2021/07/03 05:10:58;;;;;;;21.97;19.67;;;17.60;1.00;;;;;;5090893;28;20541;-75
2021/07/03 05:13:25;;;;;;;20.23;18.20;;;17.60;1.00;;;;;;5085378;28;20464;-74
2021/07/03 05:15:52;;;;;;;21.03;18.87;;;17.70;1.00;;;;;;5088991;28;20445;-75
2021/07/03 05:18:19;;;;;;;20.63;18.60;;;17.70;1.00;;;;;;5088067;28;20450;-75
2021/07/03 05:20:47;;;;;;;21.13;18.90;;;17.80;1.00;;;;;;5086643;28;20461;-76
2021/07/03 05:23:14;;;;;;;20.53;18.50;;;17.90;1.00;;;;;;5082203;28;20536;-76
2021/07/03 05:25:42;;;;;;;20.23;17.80;;;17.90;1.00;;;;;;5078626;28;20453;-76
2021/07/03 05:28:08;;;;;;;20.73;18.30;;;18.10;1.00;;;;;;5083937;28;21228;-76
2021/07/03 05:30:36;;;;;;;19.33;17.60;;;18.20;1.00;;;;;;5085479;28;20454;-76
2021/07/03 05:33:03;;;;;;;22.63;19.23;;;18.40;1.00;;;;;;5093152;28;20470;-76
2021/07/03 05:35:30;;;;;;;20.43;18.43;;;18.50;1.00;;;;;;5093855;28;20464;-76
2021/07/03 05:37:58;;;;;;;20.53;18.43;;;18.60;1.00;;;;;;5094891;28;20498;-76
2021/07/03 05:40:25;;;;;;;20.73;18.63;;;18.70;1.00;;;;;;5089197;28;20462;-75
2021/07/03 05:42:52;;;;;;;19.80;17.90;;;18.80;1.00;;;;;;5089879;28;20500;-76
2021/07/03 05:45:19;;;;;;;19.30;17.50;;;18.80;1.00;;;;;;5083059;28;20556;-75
2021/07/03 05:47:51;;;;;;;19.40;17.50;;;19.00;1.00;;;;;;5088851;28;20500;-75
2021/07/03 05:50:18;;;;;;;21.57;19.47;;;19.20;1.00;;;;;;5079725;28;20481;-74
2021/07/03 05:52:45;;;;;;;18.80;17.10;;;19.20;1.00;;;;;;5085754;28;20498;-75
2021/07/03 05:55:13;;;;;;;22.00;18.30;;;19.40;1.00;;;;;;5085262;27;20454;-75
2021/07/03 05:57:40;;;;;;;17.70;16.00;;;19.50;1.00;;;;;;5081787;28;20461;-75
2021/07/03 06:00:08;;;;;;;19.93;18.03;;;19.60;1.00;;;;;;5081806;28;20530;-76
2021/07/03 06:02:35;;;;;;;19.67;17.87;;;19.70;1.00;;;;;;5082437;28;20431;-76
2021/07/03 06:05:01;;;;;;;19.80;18.00;;;19.70;1.00;;;;;;5081509;28;20448;-76
2021/07/03 06:07:29;;;;;;;17.83;16.03;;;19.80;1.00;;;;;;5079016;28;20447;-76
2021/07/03 06:09:55;;;;;;;19.43;17.60;;;19.90;1.00;;;;;;5087416;28;20470;-75
2021/07/03 06:12:23;;;;;;;18.27;16.63;;;20.00;1.00;;;;;;5079030;28;20428;-76
2021/07/03 06:14:50;;;;;;;20.70;18.70;;;20.10;1.00;;;;;;5084338;28;20461;-76
2021/07/03 06:17:17;;;;;;;20.30;18.30;;;20.10;1.00;;;;;;5080976;28;20470;-76
2021/07/03 06:19:45;;;;;;;19.40;17.40;;;20.10;1.00;;;;;;5085131;28;20480;-76
2021/07/03 06:22:13;;;;;;;18.07;16.20;;;20.10;1.00;;;;;;5083561;28;20449;-75
2021/07/03 06:24:40;;;;;;;16.40;14.70;;;19.90;1.00;;;;;;5077529;28;20497;-77
2021/07/03 06:27:06;;;;;;;17.77;16.00;;;19.90;1.00;;;;;;5082485;28;20472;-76
2021/07/03 06:29:35;;;;;;;19.77;16.53;;;19.80;1.00;;;;;;5083936;28;20459;-76
2021/07/03 06:32:02;;;;;;;17.53;15.77;;;19.90;1.00;;;;;;5084653;28;21218;-76
2021/07/03 06:34:28;;;;;;;18.53;15.23;;;19.90;1.00;;;;;;5083598;28;20462;-75
2021/07/03 06:36:55;;;;;;;16.67;14.97;;;20.00;1.00;;;;;;5083788;28;20546;-75
2021/07/03 06:39:22;;;;;;;17.33;15.50;;;20.00;1.00;;;;;;5080669;28;20976;-74
2021/07/03 06:41:48;;;;;;;17.13;15.50;;;20.10;1.00;;;;;;5080752;28;20461;-74
2021/07/03 06:44:15;;;;;;;16.70;14.37;;;20.20;1.00;;;;;;5081866;28;20465;-75
2021/07/03 06:46:43;;;;;;;15.80;14.27;;;20.20;1.00;;;;;;5086544;28;20432;-75
2021/07/03 06:49:10;;;;;;;14.50;13.20;;;20.20;1.00;;;;;;5081339;28;20220;-75
2021/07/03 06:51:36;;;;;;;14.80;13.20;;;20.20;1.00;;;;;;5087953;28;20438;-76
2021/07/03 06:54:04;;;;;;;15.17;13.77;;;20.30;1.00;;;;;;5087887;28;20524;-76
2021/07/03 06:56:31;;;;;;;15.47;14.00;;;20.30;1.00;;;;;;5085218;28;20508;-76
2021/07/03 06:58:58;;;;;;;14.43;13.00;;;20.40;1.00;;;;;;5084483;28;21294;-76
2021/07/03 07:01:25;;;;;;;13.40;12.00;;;20.40;1.00;;;;;;5078115;28;20438;-75
2021/07/03 07:03:53;;;;;;;14.37;12.80;;;20.50;1.00;;;;;;5078209;28;21289;-75
2021/07/03 07:06:19;;;;;;;17.23;13.43;;;20.50;1.00;;;;;;5082375;28;20415;-77
2021/07/03 07:08:46;;;;;;;13.23;12.03;;;20.50;1.00;;;;;;5083298;28;20446;-76
2021/07/03 07:11:13;;;;;;;14.23;12.93;;;20.50;1.00;;;;;;5082640;28;20446;-75
2021/07/03 07:13:42;;;;;;;14.63;13.23;;;20.70;1.00;;;;;;5086917;28;20526;-76
2021/07/03 07:16:08;;;;;;;14.80;13.40;;;20.70;1.00;;;;;;5080601;28;20459;-76
2021/07/03 07:18:35;;;;;;;13.23;11.80;;;20.70;1.00;;;;;;5084307;28;20463;-76
2021/07/03 07:21:03;;;;;;;14.03;12.60;;;20.70;1.00;;;;;;5081472;28;20444;-76
2021/07/03 07:23:29;;;;;;;14.10;12.40;;;20.80;1.00;;;;;;5080641;28;20461;-76
2021/07/03 07:25:56;;;;;;;14.70;13.40;;;20.90;1.00;;;;;;5080895;28;20457;-76
2021/07/03 07:28:23;;;;;;;14.00;12.70;;;20.90;1.00;;;;;;5082889;28;21215;-77
2021/07/03 07:30:49;;;;;;;14.93;13.60;;;21.00;1.00;;;;;;5081335;28;20472;-77
2021/07/03 07:33:16;;;;;;;15.03;13.10;;;21.20;1.00;;;;;;5079659;28;20441;-77
2021/07/03 07:35:43;;;;;;;13.83;12.63;;;21.40;1.00;;;;;;5082716;28;20977;-76
2021/07/03 07:38:11;;;;;;;14.27;12.90;;;21.50;1.00;;;;;;5080466;28;20941;-77
2021/07/03 07:40:38;;;;;;;15.07;13.57;;;21.50;1.00;;;;;;5080718;28;21392;-77
2021/07/03 07:43:04;;;;;;;15.00;13.70;;;21.70;1.00;;;;;;5079655;28;20464;-77
2021/07/03 07:45:31;;;;;;;14.50;13.20;;;21.80;1.00;;;;;;5085977;28;20542;-77
2021/07/03 07:47:57;;;;;;;14.40;13.17;;;21.90;1.00;;;;;;5082938;28;20461;-78
2021/07/03 07:50:24;;;;;;;13.97;12.60;;;21.90;1.00;;;;;;5082837;28;20487;-77
2021/07/03 07:52:51;;;;;;;14.73;13.27;;;21.80;1.00;;;;;;5082679;28;21260;-77
2021/07/03 07:55:19;;;;;;;13.57;12.17;;;21.90;1.00;;;;;;5083725;28;20555;-76
2021/07/03 07:57:46;;;;;;;13.40;12.20;;;22.00;1.00;;;;;;5082157;28;20453;-77
2021/07/03 08:00:16;;;;;;;13.60;12.37;;;22.30;1.00;;;;;;5085547;28;20912;-77
2021/07/03 08:02:43;;;;;;;12.37;11.27;;;22.40;1.00;;;;;;5089174;28;20528;-77
2021/07/03 08:05:11;;;;;;;11.80;10.57;;;22.60;1.00;;;;;;5087631;28;20464;-77
2021/07/03 08:07:38;;;;;;;12.97;11.87;;;22.70;1.00;;;;;;5086337;28;20952;-77
2021/07/03 08:10:05;;;;;;;12.23;11.07;;;22.90;1.00;;;;;;5084886;28;20842;-77
2021/07/03 08:12:33;;;;;;;12.83;11.70;;;23.00;1.00;;;;;;5087153;28;20556;-76
2021/07/03 08:15:00;;;;;;;13.70;12.40;;;23.00;1.00;;;;;;5085272;28;20441;-76
2021/07/03 08:17:27;;;;;;;13.17;11.93;;;22.80;1.00;;;;;;5085174;28;20918;-78
2021/07/03 08:19:53;;;;;;;14.37;12.90;;;22.40;1.00;;;;;;5082862;28;20452;-76
2021/07/03 08:22:20;;;;;;;13.60;12.30;;;22.40;1.00;;;;;;5084417;28;20522;-77
2021/07/03 08:24:47;;;;;;;15.00;13.50;;;22.60;1.00;;;;;;5084332;28;20438;-76
2021/07/03 08:27:14;;;;;;;13.43;11.97;;;22.90;1.00;;;;;;5082645;28;20448;-77
2021/07/03 08:29:42;;;;;;;12.57;11.37;;;23.30;1.00;;;;;;5102110;22;20471;-75
2021/07/03 08:32:09;;;;;;;13.90;12.60;;;23.60;1.00;;;;;;5084458;28;20443;-76
2021/07/03 08:34:36;;;;;;;13.90;11.90;;;23.50;1.00;;;;;;5084538;28;20451;-76
2021/07/03 08:37:03;;;;;;;11.30;10.30;;;23.30;1.00;;;;;;5079329;28;20457;-77
2021/07/03 08:39:29;;;;;;;11.93;10.83;;;23.10;1.00;;;;;;5087035;28;21134;-77
2021/07/03 08:41:56;;;;;;;12.87;11.47;;;23.10;1.00;;;;;;5083771;28;20430;-77
2021/07/03 08:44:23;;;;;;;12.97;11.87;;;23.10;1.00;;;;;;5088509;28;20573;-76
2021/07/03 08:46:52;;;;;;;12.30;11.20;;;23.20;1.00;;;;;;5083941;28;20470;-77
2021/07/03 08:49:18;;;;;;;13.57;12.37;;;23.40;1.00;;;;;;5082422;28;20458;-77
2021/07/03 08:51:48;;;;;;;14.10;12.70;;;23.50;1.00;;;;;;5080193;28;20497;-76
2021/07/03 08:54:15;;;;;;;12.50;11.20;;;23.80;1.00;;;;;;5085547;28;20499;-77
2021/07/03 08:56:43;;;;;;;13.33;12.10;;;24.00;1.00;;;;;;5078071;28;20462;-76
2021/07/03 08:59:17;;;;;;;14.00;12.80;;;23.90;1.00;;;;;;5083785;28;21229;-76
2021/07/03 09:01:53;;;;;;;14.43;11.17;;;23.70;1.00;;;;;;5078974;28;20616;-77
2021/07/03 09:04:32;;;;;;;13.10;11.70;;;23.40;1.00;;;;;;5078280;28;20522;-76
2021/07/03 09:07:09;;;;;;;13.13;11.93;;;23.40;1.00;;;;;;5078410;28;20458;-77
2021/07/03 09:09:35;;;;;;;12.00;11.00;;;23.50;1.00;;;;;;5078589;28;20430;-76
2021/07/03 09:12:02;;;;;;;12.03;10.93;;;23.80;1.00;;;;;;5081325;28;20451;-77
2021/07/03 09:14:30;;;;;;;11.50;10.40;;;24.30;1.00;;;;;;5077900;28;20882;-77
2021/07/03 09:16:59;;;;;;;11.73;10.63;;;24.70;1.00;;;;;;5086371;28;20552;-77
2021/07/03 09:19:29;;;;;;;12.00;10.93;;;24.60;1.00;;;;;;5074243;28;21001;-76
2021/07/03 09:21:57;;;;;;;12.03;10.50;;;24.40;1.00;;;;;;5081957;28;20913;-76
2021/07/03 09:24:30;;;;;;;11.20;10.10;;;24.10;1.00;;;;;;5078054;28;21041;-76
2021/07/03 09:27:02;;;;;;;11.93;10.90;;;23.90;1.00;;;;;;5082622;28;20516;-77
2021/07/03 09:29:29;;;;;;;11.43;10.47;;;23.80;1.00;;;;;;5076913;28;20439;-76
2021/07/03 09:32:06;;;;;;;11.50;10.50;;;24.00;1.00;;;;;;5079392;28;20523;-77
2021/07/03 09:34:33;;;;;;;13.40;12.07;;;24.40;1.00;;;;;;5082329;28;21176;-77
2021/07/03 09:37:04;;;;;;;14.07;12.67;;;24.90;1.00;;;;;;5077189;28;20491;-77
2021/07/03 09:39:31;;;;;;;11.67;10.57;;;24.80;1.00;;;;;;5084905;28;20507;-77
2021/07/03 09:42:00;;;;;;;11.40;10.30;;;25.30;1.00;;;;;;5081389;28;20544;-77
2021/07/03 09:44:27;;;;;;;10.70;9.70;;;26.00;1.00;;;;;;5077678;28;21260;-77
2021/07/03 09:46:54;;;;;;;11.27;10.17;;;27.00;1.00;;;;;;5076946;28;20492;-77
2021/07/03 09:49:26;;;;;;;10.70;9.90;;;27.90;1.00;;;;;;5081293;28;20444;-78
2021/07/03 09:51:54;;;;;;;11.07;10.23;;;29.00;1.00;;;;;;5077051;28;20545;-78
2021/07/03 09:54:23;;;;;;;9.80;8.80;;;30.00;1.00;;;;;;5084178;28;20517;-78
2021/07/03 09:56:58;;;;;;;8.03;7.43;;;30.80;1.00;;;;;;5082269;28;20457;-77
2021/07/03 09:59:25;;;;;;;8.90;8.20;;;31.60;1.00;;;;;;5077219;28;20966;-78
2021/07/03 10:01:52;;;;;;;9.30;8.57;;;32.00;1.00;;;;;;5079434;28;20468;-77
2021/07/03 10:04:19;;;;;;;9.00;8.23;;;32.40;1.00;;;;;;5074166;28;20436;-77
2021/07/03 10:06:51;;;;;;;9.90;9.20;;;32.80;1.00;;;;;;5081498;28;20620;-77
2021/07/03 10:09:24;;;;;;;9.97;9.07;;;33.40;1.00;;;;;;5075771;28;21738;-77
2021/07/03 10:11:53;;;;;;;9.50;8.70;;;33.90;1.00;;;;;;5083099;28;20466;-79
2021/07/03 10:14:20;;;;;;;8.93;8.03;;;34.30;1.00;;;;;;5078509;28;20867;-77
2021/07/03 10:16:47;;;;;;;9.77;8.97;;;32.90;1.00;;;;;;5084207;28;20593;-77
2021/07/03 10:19:19;;;;;;;9.43;8.53;;;31.20;1.00;;;;;;5080186;28;21162;-77
2021/07/03 10:21:47;;;;;;;7.67;7.00;;;31.10;1.00;;;;;;5079825;28;20522;-77
2021/07/03 10:24:18;;;;;;;10.23;8.17;;;31.60;1.00;;;;;;5079293;28;20530;-76
2021/07/03 10:26:45;;;;;;;8.40;7.70;;;32.30;1.00;;;;;;5081625;28;20482;-77
2021/07/03 10:29:17;;;;;;;8.00;7.40;;;33.00;1.00;;;;;;5081362;28;20535;-77
2021/07/03 10:31:45;;;;;;;9.87;8.77;;;33.90;1.00;;;;;;5076043;28;20529;-78
2021/07/03 10:34:12;;;;;;;9.07;8.37;;;34.80;1.00;;;;;;5080856;28;20457;-77
2021/07/03 10:36:40;;;;;;;10.77;9.87;;;35.30;1.00;;;;;;5077876;28;20560;-77
2021/07/03 10:39:08;;;;;;;9.23;8.43;;;35.40;1.00;;;;;;5083078;28;20446;-77
2021/07/03 10:41:36;;;;;;;8.23;7.63;;;35.30;1.00;;;;;;5088826;28;20550;-77
2021/07/03 10:44:08;;;;;;;9.03;8.27;;;35.20;1.00;;;;;;5095439;28;21596;-76
2021/07/03 10:46:37;;;;;;;8.27;7.57;;;35.30;1.00;;;;;;5088160;28;20529;-76
2021/07/03 10:49:11;;;;;;;7.00;6.40;;;35.30;1.00;;;;;;5095389;28;20423;-76
2021/07/03 10:51:39;;;;;;;6.30;5.80;;;35.10;1.00;;;;;;5088363;28;20490;-76
2021/07/03 10:54:29;;;;;;;7.13;6.63;;;35.40;1.00;;;;;;5085864;28;20454;-77
2021/07/03 10:57:02;;;;;;;6.87;6.37;;;36.00;1.00;;;;;;5085213;28;20533;-77
2021/07/03 10:59:30;;;;;;;8.00;7.23;;;36.80;1.00;;;;;;5089813;28;20506;-78
2021/07/03 11:02:06;;;;;;;8.23;7.57;;;36.30;1.00;;;;;;5085160;28;20447;-77
2021/07/03 11:04:44;;;;;;;9.63;8.50;;;34.40;1.00;;;;;;5076594;28;20438;-77
2021/07/03 11:07:13;;;;;;;8.43;7.73;;;32.60;1.00;;;;;;5086419;28;20461;-77
2021/07/03 11:09:42;;;;;;;10.13;9.30;;;31.40;1.00;;;;;;5082011;28;20456;-78
2021/07/03 11:12:14;;;;;;;7.83;7.20;;;31.60;1.00;;;;;;5083420;28;20651;-78
2021/07/03 11:14:47;;;;;;;8.23;7.47;;;33.20;1.00;;;;;;5081269;28;20460;-77
2021/07/03 11:17:15;;;;;;;8.57;7.80;;;34.50;1.00;;;;;;5082839;28;20559;-77
2021/07/03 11:19:43;;;;;;;8.33;7.67;;;34.80;1.00;;;;;;5081448;28;20497;-77
2021/07/03 11:22:12;;;;;;;7.93;7.33;;;33.70;1.00;;;;;;5083581;28;20474;-77
2021/07/03 11:24:46;;;;;;;8.60;7.90;;;31.80;1.00;;;;;;5079982;28;20956;-78
2021/07/03 11:27:13;;;;;;;9.20;8.40;;;30.40;1.00;;;;;;5079548;28;20544;-76
2021/07/03 11:29:44;;;;;;;10.70;9.70;;;29.20;1.00;;;;;;5079873;28;20454;-76
2021/07/03 11:32:11;;;;;;;11.07;10.10;;;28.50;1.00;;;;;;5077278;28;20472;-77
2021/07/03 11:34:38;;;;;;;10.00;9.13;;;28.10;1.00;;;;;;5082833;28;20447;-77
2021/07/03 11:37:05;;;;;;;9.53;8.70;;;27.90;1.00;;;;;;5078535;28;20491;-77
2021/07/03 11:39:32;;;;;;;8.70;7.80;;;28.10;1.00;;;;;;5086536;28;20979;-77
2021/07/03 11:42:01;;;;;;;7.73;7.03;;;29.60;1.00;;;;;;5083232;28;20426;-77
2021/07/03 11:44:28;;;;;;;7.20;6.50;;;31.90;1.00;;;;;;5084159;28;20870;-78
2021/07/03 11:46:55;;;;;;;6.90;6.40;;;33.50;1.00;;;;;;5086747;28;20486;-79
2021/07/03 11:49:22;;;;;;;6.40;5.80;;;35.00;1.00;;;;;;5085249;28;20446;-80
2021/07/03 11:52:01;;;;;;;7.90;7.30;;;35.90;1.00;;;;;;5077570;28;20455;-77
2021/07/03 11:54:27;;;;;;;7.53;6.93;;;36.10;1.00;;;;;;5082524;28;20459;-77
2021/07/03 11:57:02;;;;;;;8.40;7.77;;;34.80;1.00;;;;;;5083430;28;20844;-77
2021/07/03 11:59:29;;;;;;;7.70;7.10;;;33.00;1.00;;;;;;5078390;28;20805;-78
2021/07/03 12:01:56;;;;;;;7.87;7.27;;;31.50;1.00;;;;;;5086987;28;20423;-77
2021/07/03 12:04:23;;;;;;;7.90;6.93;;;30.40;1.00;;;;;;5082084;28;20443;-76
2021/07/03 12:06:59;;;;;;;9.00;8.30;;;29.90;1.00;;;;;;5085755;28;20553;-76
2021/07/03 12:09:34;;;;;;;8.13;7.53;;;30.30;1.00;;;;;;5083184;28;20461;-77
2021/07/03 12:12:02;;;;;;;7.50;6.90;;;30.60;1.00;;;;;;5081711;28;21262;-77
2021/07/03 12:14:29;;;;;;;7.13;6.60;;;30.40;1.00;;;;;;5080416;28;20439;-78
2021/07/03 12:16:57;;;;;;;8.77;7.87;;;29.90;1.00;;;;;;5081972;28;20471;-78
2021/07/03 12:19:24;;;;;;;7.43;6.83;;;30.20;1.00;;;;;;5082722;28;20436;-77
2021/07/03 12:21:51;;;;;;;6.73;6.17;;;31.70;1.00;;;;;;5080255;28;20462;-77
2021/07/03 12:24:18;;;;;;;6.10;5.60;;;33.30;1.00;;;;;;5085267;28;20450;-76
2021/07/03 12:26:48;;;;;;;6.93;6.33;;;34.30;1.00;;;;;;5077154;28;20454;-75
2021/07/03 12:29:23;;;;;;;5.67;5.27;;;35.70;1.00;;;;;;5082670;28;21515;-77
2021/07/03 12:31:51;;;;;;;7.73;7.13;;;36.60;1.00;;;;;;5082187;28;20485;-78
2021/07/03 12:34:23;;;;;;;7.10;6.60;;;37.50;1.00;;;;;;5087667;28;20444;-78
2021/07/03 12:36:51;;;;;;;7.10;6.50;;;37.40;1.00;;;;;;5081892;28;20449;-76
2021/07/03 12:39:20;;;;;;;7.33;6.70;;;36.10;1.00;;;;;;5080873;28;20465;-77
2021/07/03 12:41:53;;;;;;;9.13;8.37;;;34.40;1.00;;;;;;5086738;28;21151;-78
2021/07/03 12:44:31;;;;;;;8.57;7.60;;;32.90;1.00;;;;;;5081998;28;21082;-76